createdAt,value
2022-11-27T00:00:16.332Z,55.83
2022-11-27T00:02:46.492Z,56.07
2022-11-27T00:05:19.528Z,49.83
2022-11-27T00:07:49.602Z,61.27
2022-11-27T00:10:19.849Z,64.33
2022-11-27T00:12:49.875Z,54.93
2022-11-27T00:15:20.089Z,56.37
2022-11-27T00:17:50.003Z,55.77
2022-11-27T00:20:26.104Z,59.17
2022-11-27T00:22:58.487Z,58.50
2022-11-27T00:25:28.677Z,59.70
2022-11-27T00:27:58.774Z,54.17
2022-11-27T00:30:28.721Z,57.80
2022-11-27T00:32:58.697Z,65.77
2022-11-27T00:35:31.448Z,67.80
2022-11-27T00:38:01.425Z,63.23
2022-11-27T00:40:31.389Z,57.27
2022-11-27T00:43:01.528Z,59.03
2022-11-27T00:45:31.856Z,58.53
2022-11-27T00:48:01.833Z,56.53
2022-11-27T00:50:34.745Z,55.60
2022-11-27T00:53:04.744Z,57.50
2022-11-27T00:55:34.775Z,56.13
2022-11-27T00:58:04.774Z,61.93
2022-11-27T01:00:34.787Z,63.50
2022-11-27T01:03:04.848Z,60.30
2022-11-27T01:05:38.917Z,54.23
2022-11-27T01:08:08.886Z,58.80
2022-11-27T01:10:38.957Z,50.00
2022-11-27T01:13:08.996Z,53.00
2022-11-27T01:15:39.084Z,52.13
2022-11-27T01:18:09.036Z,49.70
2022-11-27T01:20:43.726Z,49.33
2022-11-27T01:23:13.690Z,48.03
2022-11-27T01:25:43.843Z,49.33
2022-11-27T01:28:13.735Z,49.57
2022-11-27T01:30:44.146Z,48.37
2022-11-27T01:33:14.346Z,49.63
2022-11-27T01:35:55.485Z,42.20
2022-11-27T01:38:40.560Z,56.50
2022-11-27T01:41:15.736Z,47.77
2022-11-27T01:43:47.802Z,55.13
2022-11-27T01:46:35.678Z,45.80
2022-11-27T01:49:27.960Z,54.90
2022-11-27T01:52:05.032Z,48.10
2022-11-27T01:54:40.370Z,49.33
2022-11-27T01:57:15.311Z,47.00
2022-11-27T01:59:46.700Z,45.23
2022-11-27T02:02:17.244Z,43.87
2022-11-27T02:04:47.568Z,41.73
2022-11-27T02:07:20.219Z,43.43
2022-11-27T02:09:50.328Z,47.03
2022-11-27T02:12:25.932Z,46.70
2022-11-27T02:15:03.907Z,36.67
2022-11-27T02:17:41.845Z,47.40
2022-11-27T02:20:26.769Z,51.47
2022-11-27T02:23:16.601Z,46.93
2022-11-27T02:26:02.986Z,38.10
2022-11-27T02:28:44.421Z,36.07
2022-11-27T02:31:23.199Z,50.90
2022-11-27T02:33:57.832Z,48.10
2022-11-27T02:36:32.875Z,50.10
2022-11-27T02:39:07.642Z,44.60
2022-11-27T02:41:47.377Z,57.77
2022-11-27T02:44:19.683Z,48.67
2022-11-27T02:46:53.241Z,55.60
2022-11-27T02:49:24.709Z,54.27
2022-11-27T02:51:59.061Z,63.40
2022-11-27T02:54:31.862Z,58.70
2022-11-27T02:57:04.910Z,50.27
2022-11-27T02:59:37.817Z,62.80
2022-11-27T03:02:16.733Z,55.50
2022-11-27T03:04:52.870Z,53.77
2022-11-27T03:07:28.627Z,63.67
2022-11-27T03:10:05.061Z,55.90
2022-11-27T03:12:35.390Z,75.20
2022-11-27T03:15:06.306Z,59.13
2022-11-27T03:17:52.402Z,54.37
2022-11-27T03:20:26.708Z,62.87
2022-11-27T03:22:57.774Z,67.10
2022-11-27T03:25:27.980Z,54.93
2022-11-27T03:28:01.276Z,41.33
2022-11-27T03:30:31.439Z,65.30
2022-11-27T03:33:05.027Z,39.87
2022-11-27T03:35:34.985Z,50.57
2022-11-27T03:38:05.137Z,53.17
2022-11-27T03:40:47.487Z,50.23
2022-11-27T03:43:25.759Z,50.33
2022-11-27T03:46:02.868Z,52.70
2022-11-27T03:48:41.031Z,58.40
2022-11-27T03:51:18.253Z,60.30
2022-11-27T03:53:55.823Z,45.40
2022-11-27T03:56:36.827Z,59.13
2022-11-27T03:59:11.977Z,60.47
2022-11-27T04:01:43.415Z,53.10
2022-11-27T04:04:16.111Z,55.93
2022-11-27T04:06:46.178Z,66.30
2022-11-27T04:09:16.090Z,46.70
2022-11-27T04:11:46.028Z,45.50
2022-11-27T04:14:16.117Z,55.00
2022-11-27T04:16:46.110Z,45.37
2022-11-27T04:19:18.884Z,45.73
2022-11-27T04:21:48.787Z,46.33
2022-11-27T04:24:18.893Z,49.07
2022-11-27T04:26:48.864Z,44.20
2022-11-27T04:29:19.117Z,45.63
2022-11-27T04:31:49.087Z,49.10
2022-11-27T04:34:21.946Z,48.67
2022-11-27T04:36:52.100Z,50.43
2022-11-27T04:39:22.037Z,39.83
2022-11-27T04:41:52.070Z,49.93
2022-11-27T04:44:22.856Z,46.00
2022-11-27T04:46:53.424Z,51.37
2022-11-27T04:49:26.088Z,38.33
2022-11-27T04:51:56.102Z,44.83
2022-11-27T04:54:26.201Z,40.20
2022-11-27T04:56:56.122Z,38.80
2022-11-27T04:59:26.110Z,41.53
2022-11-27T05:01:56.175Z,41.43
2022-11-27T05:04:28.795Z,47.23
2022-11-27T05:06:58.786Z,45.83
2022-11-27T05:09:28.847Z,37.17
2022-11-27T05:11:58.764Z,42.20
2022-11-27T05:14:29.370Z,41.03
2022-11-27T05:17:01.433Z,32.60
2022-11-27T05:19:34.546Z,37.23
2022-11-27T05:22:04.718Z,38.70
2022-11-27T05:24:34.931Z,36.37
2022-11-27T05:27:04.933Z,30.47
2022-11-27T05:29:34.868Z,32.33
2022-11-27T05:32:04.853Z,35.43
2022-11-27T05:34:37.615Z,36.40
2022-11-27T05:37:07.794Z,33.33
2022-11-27T05:39:38.193Z,32.43
2022-11-27T05:42:08.304Z,36.27
2022-11-27T05:44:38.419Z,28.20
2022-11-27T05:47:08.708Z,30.00
2022-11-27T05:49:41.360Z,30.57
2022-11-27T05:52:11.343Z,28.70
2022-11-27T05:54:41.558Z,39.63
2022-11-27T05:57:11.782Z,36.10
2022-11-27T05:59:41.687Z,33.57
2022-11-27T06:02:16.451Z,30.50
2022-11-27T06:04:52.647Z,34.50
2022-11-27T06:07:22.727Z,24.77
2022-11-27T06:09:52.721Z,36.60
2022-11-27T06:12:22.688Z,35.57
2022-11-27T06:14:52.872Z,32.73
2022-11-27T06:17:22.955Z,35.60
2022-11-27T06:19:55.592Z,30.43
2022-11-27T06:22:25.584Z,31.60
2022-11-27T06:24:55.493Z,37.30
2022-11-27T06:27:25.701Z,38.93
2022-11-27T06:29:55.677Z,29.40
2022-11-27T06:32:25.653Z,29.50
2022-11-27T06:34:58.247Z,34.27
2022-11-27T06:37:28.601Z,34.47
2022-11-27T06:39:58.519Z,27.83
2022-11-27T06:42:28.485Z,31.83
2022-11-27T06:44:58.490Z,29.20
2022-11-27T06:47:28.396Z,33.90
2022-11-27T06:50:00.878Z,37.20
2022-11-27T06:52:32.759Z,33.37
2022-11-27T06:55:05.946Z,36.93
2022-11-27T06:57:35.868Z,31.77
2022-11-27T07:00:06.235Z,37.33
2022-11-27T07:02:36.350Z,33.80
2022-11-27T07:05:09.281Z,31.70
2022-11-27T07:07:43.646Z,31.27
2022-11-27T07:10:14.534Z,34.03
2022-11-27T07:12:44.546Z,32.53
2022-11-27T07:15:14.566Z,32.73
2022-11-27T07:17:44.515Z,28.03
2022-11-27T07:20:17.327Z,29.27
2022-11-27T07:22:47.300Z,38.80
2022-11-27T07:25:17.250Z,30.03
2022-11-27T07:27:47.233Z,29.47
2022-11-27T07:30:18.429Z,32.30
2022-11-27T07:32:48.391Z,35.37
2022-11-27T07:35:21.457Z,29.07
2022-11-27T07:37:51.415Z,38.13
2022-11-27T07:40:21.531Z,36.10
2022-11-27T07:42:51.550Z,36.03
2022-11-27T07:45:21.519Z,30.73
2022-11-27T07:47:51.528Z,34.07
2022-11-27T07:50:24.223Z,32.07
2022-11-27T07:52:54.205Z,27.00
2022-11-27T07:55:24.201Z,38.57
2022-11-27T07:57:54.276Z,29.83
2022-11-27T08:00:24.834Z,28.43
2022-11-27T08:02:54.840Z,27.27
2022-11-27T08:05:27.382Z,34.77
2022-11-27T08:07:57.851Z,30.23
2022-11-27T08:10:27.823Z,29.90
2022-11-27T08:13:00.444Z,31.00
2022-11-27T08:15:32.602Z,32.43
2022-11-27T08:18:02.853Z,29.07
2022-11-27T08:20:35.432Z,33.07
2022-11-27T08:23:05.354Z,27.47
2022-11-27T08:25:35.330Z,30.03
2022-11-27T08:28:05.525Z,26.87
2022-11-27T08:30:35.551Z,26.10
2022-11-27T08:33:05.600Z,28.73
2022-11-27T08:35:38.301Z,30.03
2022-11-27T08:38:08.397Z,28.30
2022-11-27T08:40:38.587Z,29.00
2022-11-27T08:43:08.567Z,29.57
2022-11-27T08:45:40.843Z,28.73
2022-11-27T08:48:11.259Z,23.67
2022-11-27T08:50:43.879Z,25.83
2022-11-27T08:53:14.841Z,28.30
2022-11-27T08:55:45.133Z,27.50
2022-11-27T08:58:15.412Z,25.63
2022-11-27T09:00:45.406Z,25.60
2022-11-27T09:03:15.525Z,25.43
2022-11-27T09:05:48.305Z,23.80
2022-11-27T09:08:21.522Z,24.50
2022-11-27T09:10:51.690Z,26.47
2022-11-27T09:13:21.899Z,23.67
2022-11-27T09:15:52.542Z,22.50
2022-11-27T09:18:22.509Z,20.63
2022-11-27T09:21:01.871Z,23.80
2022-11-27T09:23:32.538Z,17.87
2022-11-27T09:26:03.048Z,24.53
2022-11-27T09:28:34.586Z,19.03
2022-11-27T09:31:06.279Z,21.03
2022-11-27T09:33:38.683Z,20.53
2022-11-27T09:36:14.936Z,19.53
2022-11-27T09:38:45.440Z,18.43
2022-11-27T09:41:46.618Z,14.33
2022-11-27T09:44:32.500Z,14.83
2022-11-27T09:47:10.078Z,16.53
2022-11-27T09:49:48.885Z,16.13
2022-11-27T09:52:28.359Z,16.10
2022-11-27T09:55:04.443Z,15.03
2022-11-27T09:57:37.999Z,14.53
2022-11-27T10:00:10.422Z,14.17
2022-11-27T10:02:40.544Z,14.40
2022-11-27T10:05:18.027Z,12.70
2022-11-27T10:08:13.752Z,17.10
2022-11-27T10:10:49.863Z,14.63
2022-11-27T10:13:43.982Z,12.37
2022-11-27T10:16:23.111Z,12.90
2022-11-27T10:18:57.333Z,13.50
2022-11-27T10:21:35.408Z,12.83
2022-11-27T10:24:19.283Z,12.77
2022-11-27T10:26:51.032Z,11.93
2022-11-27T10:29:33.528Z,12.77
2022-11-27T10:32:07.861Z,11.48
2022-11-27T10:34:42.413Z,11.43
2022-11-27T10:37:20.495Z,12.00
2022-11-27T10:39:58.852Z,11.25
2022-11-27T10:42:35.188Z,12.20
2022-11-27T10:45:08.790Z,10.15
2022-11-27T10:47:42.309Z,12.25
2022-11-27T10:50:16.977Z,11.43
2022-11-27T10:52:52.902Z,10.55
2022-11-27T10:55:37.743Z,10.65
2022-11-27T10:58:18.698Z,10.68
2022-11-27T11:00:50.052Z,10.10
2022-11-27T11:03:21.030Z,10.75
2022-11-27T11:08:50.943Z,10.60
2022-11-27T11:11:30.672Z,12.57
2022-11-27T11:14:01.016Z,17.77
2022-11-27T11:16:35.263Z,14.70
2022-11-27T11:19:08.557Z,10.98
2022-11-27T11:21:44.878Z,11.70
2022-11-27T11:24:19.177Z,10.38
2022-11-27T11:26:54.212Z,9.98
2022-11-27T11:29:37.635Z,10.13
2022-11-27T11:32:13.190Z,9.18
2022-11-27T11:34:49.062Z,13.02
2022-11-27T11:37:26.591Z,10.57
2022-11-27T11:40:02.443Z,11.45
2022-11-27T11:42:37.012Z,10.10
2022-11-27T11:45:09.948Z,12.53
2022-11-27T11:47:47.470Z,10.30
2022-11-27T11:50:27.851Z,10.03
2022-11-27T11:53:02.540Z,13.47
2022-11-27T11:55:38.605Z,9.63
2022-11-27T11:58:42.059Z,11.27
2022-11-27T12:01:27.515Z,9.57
2022-11-27T12:04:10.470Z,9.35
2022-11-27T12:06:51.508Z,9.73
2022-11-27T12:09:33.919Z,9.25
2022-11-27T12:12:14.220Z,10.82
2022-11-27T12:14:53.118Z,9.98
2022-11-27T12:17:42.702Z,12.57
2022-11-27T12:20:19.836Z,9.82
2022-11-27T12:23:16.013Z,10.30
2022-11-27T12:25:56.373Z,10.35
2022-11-27T12:28:41.665Z,10.48
2022-11-27T12:31:26.058Z,10.07
2022-11-27T12:34:04.269Z,11.67
2022-11-27T12:36:59.239Z,9.17
2022-11-27T12:39:36.001Z,9.90
2022-11-27T12:42:21.754Z,11.40
2022-11-27T12:44:59.731Z,10.60
2022-11-27T12:47:40.377Z,8.30
2022-11-27T12:50:18.022Z,8.90
2022-11-27T12:52:54.280Z,8.87
2022-11-27T12:55:27.613Z,10.43
2022-11-27T12:58:03.988Z,8.97
2022-11-27T13:00:37.955Z,8.90
2022-11-27T13:03:18.896Z,9.67
2022-11-27T13:05:54.408Z,8.90
2022-11-27T13:08:29.314Z,9.93
2022-11-27T13:11:04.178Z,9.17
2022-11-27T13:13:40.383Z,8.70
2022-11-27T13:16:18.816Z,11.73
2022-11-27T13:18:57.493Z,10.00
2022-11-27T13:21:30.901Z,8.87
2022-11-27T13:24:04.179Z,8.77
2022-11-27T13:26:38.046Z,8.73
2022-11-27T13:29:16.517Z,8.47
2022-11-27T13:31:49.610Z,8.33
2022-11-27T13:34:24.785Z,9.47
2022-11-27T13:37:00.737Z,9.50
2022-11-27T13:39:33.078Z,8.87
2022-11-27T13:42:08.561Z,10.00
2022-11-27T13:44:42.785Z,10.83
2022-11-27T13:47:18.043Z,11.27
2022-11-27T13:50:03.120Z,9.03
2022-11-27T13:52:33.443Z,8.87
2022-11-27T13:55:05.526Z,10.50
2022-11-27T13:57:38.472Z,16.47
2022-11-27T14:00:11.651Z,8.63
2022-11-27T14:02:46.421Z,11.57
2022-11-27T14:05:21.141Z,9.93
2022-11-27T14:07:53.645Z,7.93
2022-11-27T14:10:26.018Z,13.57
2022-11-27T14:12:58.271Z,11.00
2022-11-27T14:15:30.543Z,9.20
2022-11-27T14:18:10.291Z,11.77
2022-11-27T14:20:53.442Z,11.23
2022-11-27T14:23:31.140Z,10.10
2022-11-27T14:26:10.686Z,12.07
2022-11-27T14:28:46.150Z,14.90
2022-11-27T14:31:30.458Z,13.53
2022-11-27T14:34:23.196Z,18.90
2022-11-27T14:36:56.348Z,11.40
2022-11-27T14:39:27.986Z,12.73
2022-11-27T14:42:03.143Z,13.60
2022-11-27T14:44:33.777Z,16.77
2022-11-27T14:47:06.458Z,11.97
2022-11-27T14:49:36.958Z,13.50
2022-11-27T14:52:18.149Z,12.40
2022-11-27T14:54:48.301Z,15.50
2022-11-27T14:57:24.973Z,15.93
2022-11-27T15:00:05.390Z,13.73
2022-11-27T15:02:35.441Z,11.93
2022-11-27T15:05:07.756Z,13.13
2022-11-27T15:07:46.743Z,14.17
2022-11-27T15:10:35.117Z,12.27
2022-11-27T15:13:07.085Z,11.80
2022-11-27T15:15:46.640Z,14.63
2022-11-27T15:18:23.556Z,12.10
2022-11-27T15:20:54.662Z,21.07
2022-11-27T15:23:30.915Z,13.53
2022-11-27T15:26:15.093Z,12.63
2022-11-27T15:28:54.784Z,11.53
2022-11-27T15:31:37.467Z,11.43
2022-11-27T15:34:09.034Z,12.17
2022-11-27T15:36:44.757Z,13.03
2022-11-27T15:39:28.762Z,15.87
2022-11-27T15:42:00.136Z,13.97
2022-11-27T15:44:33.310Z,13.20
2022-11-27T15:47:05.136Z,15.33
2022-11-27T15:49:35.621Z,17.80
2022-11-27T15:52:05.819Z,17.23
2022-11-27T15:54:38.444Z,33.57
2022-11-27T15:57:08.440Z,13.87
2022-11-27T15:59:38.567Z,15.77
2022-11-27T16:02:13.133Z,15.63
2022-11-27T16:04:46.089Z,15.50
2022-11-27T16:07:16.097Z,15.27
2022-11-27T16:09:49.930Z,14.97
2022-11-27T16:12:19.899Z,16.83
2022-11-27T16:14:49.927Z,18.23
2022-11-27T16:17:20.798Z,15.37
2022-11-27T16:19:50.802Z,14.70
2022-11-27T16:22:20.835Z,16.47
2022-11-27T16:24:53.377Z,18.60
2022-11-27T16:27:26.597Z,15.23
2022-11-27T16:29:56.549Z,21.07
2022-11-27T16:32:27.098Z,17.77
2022-11-27T16:34:57.228Z,19.33
2022-11-27T16:37:27.304Z,17.20
2022-11-27T16:40:00.036Z,16.90
2022-11-27T16:42:31.322Z,15.23
2022-11-27T16:45:01.279Z,19.37
2022-11-27T16:47:33.955Z,12.37
2022-11-27T16:50:05.100Z,19.27
2022-11-27T16:52:36.862Z,18.83
2022-11-27T16:55:10.188Z,19.33
2022-11-27T16:57:41.082Z,18.27
2022-11-27T17:00:11.869Z,15.67
2022-11-27T17:02:41.949Z,12.67
2022-11-27T17:05:12.170Z,17.43
2022-11-27T17:07:42.688Z,16.33
2022-11-27T17:10:15.359Z,18.20
2022-11-27T17:12:45.464Z,13.93
2022-11-27T17:15:15.717Z,16.80
2022-11-27T17:17:46.353Z,17.57
2022-11-27T17:20:16.397Z,19.37
2022-11-27T17:22:46.739Z,18.97
2022-11-27T17:25:19.365Z,24.80
2022-11-27T17:27:51.716Z,20.07
2022-11-27T17:30:22.007Z,20.97
2022-11-27T17:32:51.969Z,18.10
2022-11-27T17:35:21.866Z,22.40
2022-11-27T17:37:51.821Z,24.13
2022-11-27T17:40:24.399Z,21.20
2022-11-27T17:42:54.318Z,24.93
2022-11-27T17:45:24.318Z,19.03
2022-11-27T17:47:54.311Z,22.80
2022-11-27T17:50:24.364Z,17.33
2022-11-27T17:52:55.868Z,18.03
2022-11-27T17:55:28.810Z,21.00
2022-11-27T17:57:58.825Z,18.27
2022-11-27T18:00:28.829Z,15.13
2022-11-27T18:03:03.364Z,18.53
2022-11-27T18:05:39.821Z,18.40
2022-11-27T18:08:13.404Z,18.60
2022-11-27T18:10:46.448Z,18.67
2022-11-27T18:13:18.223Z,19.23
2022-11-27T18:15:48.241Z,19.90
2022-11-27T18:18:18.398Z,25.00
2022-11-27T18:20:48.612Z,26.73
2022-11-27T18:23:18.618Z,16.33
2022-11-27T18:25:51.382Z,24.10
2022-11-27T18:28:21.587Z,24.17
2022-11-27T18:30:51.621Z,23.27
2022-11-27T18:33:21.653Z,18.90
2022-11-27T18:35:54.817Z,22.70
2022-11-27T18:38:25.031Z,20.93
2022-11-27T18:40:57.718Z,24.80
2022-11-27T18:43:27.776Z,20.40
2022-11-27T18:46:00.650Z,24.10
2022-11-27T18:48:30.991Z,23.20
2022-11-27T18:51:06.701Z,28.83
2022-11-27T18:53:37.358Z,27.07
2022-11-27T18:56:13.023Z,30.10
2022-11-27T18:58:44.725Z,26.83
2022-11-27T19:01:17.227Z,26.47
2022-11-27T19:03:50.513Z,23.90
2022-11-27T19:06:22.587Z,22.50
2022-11-27T19:08:54.162Z,21.60
2022-11-27T19:11:28.570Z,24.37
2022-11-27T19:14:00.193Z,23.97
2022-11-27T19:16:34.089Z,26.13
2022-11-27T19:19:05.929Z,28.40
2022-11-27T19:21:37.839Z,25.73
2022-11-27T19:24:08.569Z,32.10
2022-11-27T19:26:41.201Z,31.27
2022-11-27T19:29:14.531Z,28.07
2022-11-27T19:31:44.659Z,26.17
2022-11-27T19:34:15.471Z,29.83
2022-11-27T19:36:48.296Z,27.87
2022-11-27T19:39:19.388Z,27.03
2022-11-27T19:41:57.845Z,28.03
2022-11-27T19:44:28.086Z,22.10
2022-11-27T19:46:58.141Z,23.57
2022-11-27T19:49:28.246Z,20.13
2022-11-27T19:51:59.991Z,26.80
2022-11-27T19:54:35.856Z,25.33
2022-11-27T19:57:08.589Z,26.93
2022-11-27T19:59:38.719Z,23.90
2022-11-27T20:02:09.547Z,25.67
2022-11-27T20:04:40.049Z,28.73
2022-11-27T20:07:10.453Z,28.77
2022-11-27T20:09:40.406Z,19.00
2022-11-27T20:12:16.983Z,24.17
2022-11-27T20:14:47.071Z,23.00
2022-11-27T20:17:21.359Z,26.27
2022-11-27T20:19:51.667Z,22.57
2022-11-27T20:22:21.916Z,25.73
2022-11-27T20:25:17.935Z,21.43
2022-11-27T20:27:46.143Z,20.23
2022-11-27T20:30:18.795Z,22.87
2022-11-27T20:32:49.015Z,23.43
2022-11-27T20:35:19.284Z,24.87
2022-11-27T20:37:51.339Z,21.67
2022-11-27T20:40:23.833Z,24.60
2022-11-27T20:42:59.797Z,23.50
2022-11-27T20:45:32.484Z,23.43
2022-11-27T20:48:05.120Z,24.73
2022-11-27T20:50:35.694Z,20.63
2022-11-27T20:53:06.790Z,24.77
2022-11-27T20:55:37.819Z,25.47
2022-11-27T20:58:12.170Z,21.33
2022-11-27T21:00:42.921Z,22.50
2022-11-27T21:03:15.849Z,30.93
2022-11-27T21:05:48.183Z,26.47
2022-11-27T21:08:18.390Z,23.27
2022-11-27T21:10:53.816Z,25.43
2022-11-27T21:13:26.663Z,20.83
2022-11-27T21:15:59.506Z,23.63
2022-11-27T21:18:33.382Z,27.50
2022-11-27T21:21:08.869Z,27.20
2022-11-27T21:23:40.729Z,28.47
2022-11-27T21:26:11.607Z,24.73
2022-11-27T21:28:47.661Z,24.90
2022-11-27T21:31:20.379Z,27.10
2022-11-27T21:33:52.724Z,22.83
2022-11-27T21:36:24.897Z,23.60
2022-11-27T21:38:56.202Z,28.27
2022-11-27T21:41:26.742Z,24.67
2022-11-27T21:44:03.800Z,25.60
2022-11-27T21:46:35.997Z,28.37
2022-11-27T21:49:08.592Z,23.07
2022-11-27T21:51:39.837Z,24.77
2022-11-27T21:54:16.258Z,28.10
2022-11-27T21:56:46.353Z,21.90
2022-11-27T21:59:18.930Z,23.57
2022-11-27T22:01:49.997Z,30.90
2022-11-27T22:04:21.859Z,28.30
2022-11-27T22:06:58.484Z,29.07
2022-11-27T22:09:30.299Z,28.33
2022-11-27T22:12:00.241Z,24.07
2022-11-27T22:14:33.766Z,29.33
2022-11-27T22:17:03.788Z,27.53
2022-11-27T22:19:36.340Z,27.23
2022-11-27T22:22:06.365Z,33.33
2022-11-27T22:24:36.487Z,27.50
2022-11-27T22:27:08.175Z,26.10
2022-11-27T22:29:41.089Z,27.73
2022-11-27T22:32:12.602Z,28.60
2022-11-27T22:34:43.668Z,23.90
2022-11-27T22:37:14.091Z,30.27
2022-11-27T22:39:48.614Z,27.63
2022-11-27T22:42:18.713Z,25.80
2022-11-27T22:44:51.460Z,31.77
2022-11-27T22:47:21.482Z,25.33
2022-11-27T22:49:51.625Z,29.33
2022-11-27T22:52:21.692Z,27.67
2022-11-27T22:54:51.650Z,31.67
2022-11-27T22:57:22.333Z,30.57
2022-11-27T22:59:54.937Z,26.50
2022-11-27T23:02:24.969Z,24.40
2022-11-27T23:04:55.271Z,31.07
2022-11-27T23:07:26.366Z,28.77
2022-11-27T23:09:56.400Z,29.33
2022-11-27T23:12:26.487Z,29.27
2022-11-27T23:14:59.029Z,28.20
2022-11-27T23:17:29.018Z,26.17
2022-11-27T23:19:59.081Z,32.77
2022-11-27T23:22:29.051Z,28.23
2022-11-27T23:24:59.009Z,27.13
2022-11-27T23:27:28.998Z,32.33
2022-11-27T23:30:01.563Z,33.63
2022-11-27T23:32:31.540Z,28.43
2022-11-27T23:35:01.614Z,31.77
2022-11-27T23:37:32.881Z,31.63
2022-11-27T23:40:02.828Z,31.67
2022-11-27T23:42:32.777Z,31.47
2022-11-27T23:45:05.410Z,30.77
2022-11-27T23:47:35.326Z,28.13
2022-11-27T23:50:06.177Z,33.97
2022-11-27T23:52:36.414Z,29.90
2022-11-27T23:55:06.521Z,30.00
2022-11-27T23:57:36.415Z,31.30
